Time;durP1;ratioP1;P1;durP2;ratioP2;P2;SDS_P1;SDS_P2;PMS_P1;PMS_P2;Temp;Humidity;BMP_temperature;BMP_pressure;BME280_temperature;BME280_humidity;BME280_pressure;Samples;Min_cycle;Max_cycle;Signal;HPM_P1;HPM_P2
2023/04/10 00:02:15;;;;;;;12.70;10.53;;;;;;;1.55;100.00;97061.97;5007778;28;105510;-64
2023/04/10 00:04:42;;;;;;;12.63;10.43;;;;;;;1.40;100.00;97059.31;5007480;28;105018;-63
2023/04/10 00:07:10;;;;;;;12.57;9.80;;;;;;;1.21;100.00;97065.03;5007807;28;102161;-63
2023/04/10 00:09:37;;;;;;;11.13;9.27;;;;;;;1.02;100.00;97051.59;5042368;27;105153;-64
2023/04/10 00:12:05;;;;;;;12.23;9.87;;;;;;;1.23;100.00;97049.97;5045290;27;105438;-64
2023/04/10 00:14:32;;;;;;;12.47;9.97;;;;;;;1.06;100.00;97040.63;5008747;28;104470;-64
2023/04/10 00:16:59;;;;;;;11.50;10.13;;;;;;;1.07;100.00;97036.19;5007114;28;105710;-63
2023/04/10 00:19:26;;;;;;;12.43;9.63;;;;;;;1.07;100.00;97033.56;5007339;28;102179;-64
2023/04/10 00:21:53;;;;;;;13.60;10.10;;;;;;;1.15;100.00;97033.50;5008203;28;105666;-64
2023/04/10 00:24:21;;;;;;;11.87;10.37;;;;;;;1.19;100.00;97027.75;5006938;28;105452;-64
2023/04/10 00:26:48;;;;;;;11.70;9.80;;;;;;;1.26;100.00;97020.78;5007639;28;101815;-63
2023/04/10 00:29:15;;;;;;;15.30;10.63;;;;;;;1.32;100.00;97020.06;5008643;28;105157;-64
2023/04/10 00:31:42;;;;;;;11.77;9.37;;;;;;;1.15;100.00;97012.56;5006900;28;105232;-64
2023/04/10 00:34:10;;;;;;;13.30;9.93;;;;;;;1.09;100.00;97021.13;5011837;28;101801;-63
2023/04/10 00:36:37;;;;;;;14.00;10.60;;;;;;;1.20;100.00;97025.94;5007882;28;105400;-63
2023/04/10 00:39:04;;;;;;;13.73;11.00;;;;;;;1.21;100.00;97017.88;5007646;28;101829;-63
2023/04/10 00:41:33;;;;;;;15.20;11.97;;;;;;;1.27;100.00;97013.75;5007423;28;105488;-63
2023/04/10 00:44:02;;;;;;;13.03;10.60;;;;;;;1.33;100.00;97018.28;5006854;28;104614;-64
2023/04/10 00:46:30;;;;;;;14.70;11.43;;;;;;;1.35;100.00;97014.50;5007267;28;102039;-63
2023/04/10 00:48:58;;;;;;;13.03;10.70;;;;;;;1.29;100.00;97014.38;5007196;28;105258;-63
2023/04/10 00:51:25;;;;;;;12.93;10.23;;;;;;;1.29;100.00;97009.16;5040573;27;104953;-63
2023/04/10 00:53:53;;;;;;;13.00;10.67;;;;;;;1.36;100.00;97007.44;5007217;28;101837;-63
2023/04/10 00:56:20;;;;;;;13.13;10.53;;;;;;;1.41;100.00;97015.56;5012710;28;105076;-63
2023/04/10 00:58:49;;;;;;;12.23;10.30;;;;;;;1.42;100.00;97009.38;5010745;28;101874;-63
2023/04/10 01:01:16;;;;;;;15.20;11.27;;;;;;;1.46;100.00;97008.81;5010610;28;105222;-63
2023/04/10 01:03:44;;;;;;;13.40;10.87;;;;;;;1.25;100.00;97013.09;5011766;28;102807;-63
2023/04/10 01:06:19;;;;;;;12.50;10.03;;;;;;;1.31;100.00;97001.94;5044478;27;101818;-64
2023/04/10 01:09:00;;;;;;;12.83;10.33;;;;;;;1.24;100.00;97001.00;5010600;28;104902;-63
2023/04/10 01:11:45;;;;;;;13.23;10.00;;;;;;;1.16;100.00;97003.72;5009866;28;104964;-63
2023/04/10 01:14:23;;;;;;;12.60;10.83;;;;;;;1.08;100.00;96999.34;5010088;28;101858;-63
2023/04/10 01:16:57;;;;;;;14.17;11.30;;;;;;;1.24;100.00;97007.06;5010525;28;104963;-63
2023/04/10 01:19:39;;;;;;;14.50;11.03;;;;;;;1.36;100.00;97012.66;5013304;28;102298;-63
2023/04/10 01:22:10;;;;;;;13.20;10.57;;;;;;;1.32;100.00;97008.81;5010041;28;105513;-63
2023/04/10 01:24:55;;;;;;;13.13;10.83;;;;;;;1.02;100.00;97018.38;5009787;28;105218;-63
2023/04/10 01:27:40;;;;;;;11.77;9.60;;;;;;;1.00;100.00;97004.63;5010004;28;102240;-63
2023/04/10 01:30:14;;;;;;;15.03;10.70;;;;;;;1.06;100.00;97003.13;5011271;28;103765;-63
2023/04/10 01:32:42;;;;;;;12.63;9.77;;;;;;;1.08;100.00;97001.13;5009765;28;105377;-63
2023/04/10 01:35:11;;;;;;;10.97;9.27;;;;;;;1.08;100.00;97004.59;5011168;28;102153;-63
2023/04/10 01:37:42;;;;;;;13.80;10.13;;;;;;;0.78;100.00;97007.28;5012602;28;103134;-63
2023/04/10 01:40:13;;;;;;;12.43;10.17;;;;;;;0.76;100.00;97012.69;5013148;28;105105;-63
2023/04/10 01:42:47;;;;;;;12.80;10.43;;;;;;;0.63;100.00;97006.41;5010142;28;105633;-63
2023/04/10 01:45:20;;;;;;;13.63;10.37;;;;;;;0.67;100.00;97007.69;5009488;28;103836;-64
2023/04/10 01:47:50;;;;;;;13.67;9.80;;;;;;;0.70;100.00;97004.72;5010085;28;102102;-63
2023/04/10 01:50:20;;;;;;;13.03;10.00;;;;;;;0.72;100.00;97005.38;5010845;28;105255;-63
2023/04/10 01:52:49;;;;;;;12.27;9.63;;;;;;;0.76;100.00;97001.38;5009408;28;105486;-63
2023/04/10 01:55:27;;;;;;;12.30;9.23;;;;;;;0.79;100.00;96995.81;5010940;28;101818;-63
2023/04/10 01:58:04;;;;;;;13.67;10.20;;;;;;;0.69;100.00;96990.81;5044170;27;103976;-63
2023/04/10 02:00:38;;;;;;;13.67;10.63;;;;;;;0.86;100.00;96997.56;5009259;28;104035;-63
2023/04/10 02:03:05;;;;;;;14.30;10.63;;;;;;;0.81;100.00;96991.22;5013157;28;101771;-63
2023/04/10 02:05:41;;;;;;;13.67;9.90;;;;;;;0.91;100.00;96995.25;5010664;28;102576;-63
2023/04/10 02:08:15;;;;;;;12.37;9.13;;;;;;;0.88;100.00;97000.00;5044518;27;101877;-63
2023/04/10 02:10:51;;;;;;;11.43;9.27;;;;;;;0.72;100.00;97000.94;5044697;27;105156;-63
2023/04/10 02:13:21;;;;;;;10.87;8.97;;;;;;;0.62;100.00;96999.53;5011490;28;102809;-63
2023/04/10 02:15:52;;;;;;;11.60;9.43;;;;;;;0.69;100.00;97000.47;5010461;28;102058;-63
2023/04/10 02:18:21;;;;;;;11.50;8.50;;;;;;;0.70;100.00;96997.69;5010650;28;105412;-63
2023/04/10 02:20:49;;;;;;;11.37;9.03;;;;;;;0.68;100.00;96998.84;5043005;27;104405;-63
2023/04/10 02:23:18;;;;;;;12.43;9.50;;;;;;;0.68;100.00;96996.22;5010399;28;101888;-63
2023/04/10 02:25:45;;;;;;;11.67;9.40;;;;;;;0.64;100.00;97002.78;5013024;28;103940;-63
2023/04/10 02:28:12;;;;;;;11.30;8.37;;;;;;;0.58;100.00;96998.25;5010201;28;101862;-63
2023/04/10 02:30:39;;;;;;;10.57;8.60;;;;;;;0.45;100.00;97005.88;5010295;28;105446;-63
2023/04/10 02:33:07;;;;;;;12.17;9.20;;;;;;;0.40;100.00;97006.38;5009772;28;105964;-63
2023/04/10 02:35:34;;;;;;;12.37;9.67;;;;;;;0.46;100.00;97004.88;5010294;28;101863;-63
2023/04/10 02:38:03;;;;;;;12.23;9.13;;;;;;;0.42;100.00;96998.34;5010072;28;105450;-63
2023/04/10 02:40:31;;;;;;;13.43;10.10;;;;;;;0.31;100.00;96996.13;5043158;27;105639;-63
2023/04/10 02:43:17;;;;;;;11.97;9.10;;;;;;;0.43;100.00;96995.56;5009235;28;101786;-63
2023/04/10 02:45:46;;;;;;;11.37;8.93;;;;;;;0.48;100.00;96993.25;4993581;28;103693;-63
2023/04/10 02:48:20;;;;;;;11.20;9.57;;;;;;;0.50;100.00;96995.72;5046661;27;105504;-63
2023/04/10 02:50:56;;;;;;;10.83;8.27;;;;;;;0.33;100.00;96986.34;5010089;28;104841;-63
2023/04/10 02:53:24;;;;;;;11.40;8.77;;;;;;;0.39;100.00;96990.88;5009121;28;105204;-63
2023/04/10 02:55:55;;;;;;;11.03;8.67;;;;;;;0.36;100.00;96985.97;5009767;28;102053;-63
2023/04/10 02:58:22;;;;;;;10.80;8.60;;;;;;;0.42;100.00;96987.88;5010097;28;104832;-63
2023/04/10 03:00:52;;;;;;;11.17;8.77;;;;;;;0.20;100.00;96980.81;5009158;28;105200;-63
2023/04/10 03:03:40;;;;;;;11.23;7.97;;;;;;;0.21;100.00;96982.44;5010024;28;102161;-63
2023/04/10 03:06:08;;;;;;;10.73;8.63;;;;;;;0.17;100.00;96983.81;5009814;28;105040;-63
2023/04/10 03:08:36;;;;;;;10.77;8.77;;;;;;;0.12;100.00;96983.50;5008871;28;105295;-63
2023/04/10 03:11:03;;;;;;;10.47;8.73;;;;;;;0.08;100.00;96974.38;5013034;28;101979;-63
2023/04/10 03:13:30;;;;;;;12.00;8.90;;;;;;;0.04;100.00;96983.53;5042870;27;105465;-63
2023/04/10 03:15:57;;;;;;;10.77;8.70;;;;;;;0.07;100.00;96980.59;4992673;28;101917;-63
2023/04/10 03:18:25;;;;;;;11.57;9.10;;;;;;;0.17;100.00;96986.41;5008972;28;103483;-63
2023/04/10 03:20:54;;;;;;;11.13;8.50;;;;;;;0.19;100.00;96990.50;5008332;28;104905;-63
2023/04/10 03:23:21;;;;;;;12.10;8.93;;;;;;;0.21;100.00;96987.69;5009392;28;102220;-63
2023/04/10 03:25:50;;;;;;;11.53;9.83;;;;;;;0.21;100.00;96987.69;5009299;28;105518;-63
2023/04/10 03:28:18;;;;;;;12.03;9.67;;;;;;;0.31;100.00;96993.50;5008826;28;105460;-63
2023/04/10 03:30:45;;;;;;;14.27;11.47;;;;;;;0.32;100.00;97000.38;5046517;27;101901;-63
2023/04/10 03:33:11;;;;;;;14.27;11.20;;;;;;;0.27;100.00;96995.66;5007823;28;105778;-63
2023/04/10 03:35:38;;;;;;;11.20;9.53;;;;;;;0.22;100.00;97002.41;5009781;28;101850;-63
2023/04/10 03:38:08;;;;;;;12.73;10.17;;;;;;;0.14;100.00;96999.81;5009252;28;104825;-63
2023/04/10 03:40:36;;;;;;;12.57;9.90;;;;;;;0.05;100.00;96993.81;5007372;28;105185;-63
2023/04/10 03:43:05;;;;;;;10.80;9.40;;;;;;;-0.09;100.00;97001.56;5009257;28;101838;-63
2023/04/10 03:45:34;;;;;;;34.57;9.47;;;;;;;-0.18;100.00;96999.97;5009306;28;105621;-63
2023/04/10 03:48:02;;;;;;;20.43;9.90;;;;;;;-0.35;100.00;96998.38;5008611;28;105108;-63
2023/04/10 03:50:38;;;;;;;35.77;10.20;;;;;;;-0.44;100.00;96991.53;5008877;28;101957;-63
2023/04/10 03:53:06;;;;;;;12.27;9.43;;;;;;;-0.52;100.00;96988.13;5011052;28;104854;-63
2023/04/10 03:55:35;;;;;;;16.53;10.00;;;;;;;-0.49;100.00;96995.66;5042653;27;101838;-63
2023/04/10 03:58:03;;;;;;;20.70;10.30;;;;;;;-0.64;100.00;96994.72;5008073;28;105553;-63
2023/04/10 04:00:31;;;;;;;9.43;8.50;;;;;;;-0.55;100.00;97004.16;5007245;28;105256;-63
2023/04/10 04:03:07;;;;;;;10.27;9.17;;;;;;;-0.55;100.00;96991.91;5009122;28;101833;-63
2023/04/10 04:05:52;;;;;;;11.40;9.37;;;;;;;-0.48;100.00;96998.13;5007342;28;102081;-63
2023/04/10 04:08:27;;;;;;;9.87;8.87;;;;;;;-0.56;100.00;96997.31;5008160;28;105391;-63
2023/04/10 04:11:03;;;;;;;11.47;9.80;;;;;;;-0.64;100.00;97007.75;5008586;28;102092;-63
2023/04/10 04:13:45;;;;;;;17.47;12.73;;;;;;;-0.44;100.00;96998.59;5009042;28;104691;-63
2023/04/10 04:16:28;;;;;;;12.50;10.00;;;;;;;-0.54;100.00;97006.63;5010858;28;104347;-63
2023/04/10 04:19:12;;;;;;;10.63;8.93;;;;;;;-0.52;100.00;97001.19;5007895;28;105720;-63
2023/04/10 04:22:03;;;;;;;11.27;9.17;;;;;;;-0.50;100.00;96996.66;5007500;28;105362;-63
2023/04/10 04:24:48;;;;;;;12.17;10.03;;;;;;;-0.51;100.00;97006.28;5007064;28;101768;-63
2023/04/10 04:27:22;;;;;;;10.10;8.90;;;;;;;-0.61;100.00;97003.03;5007553;28;105121;-63
2023/04/10 04:30:00;;;;;;;10.50;9.40;;;;;;;-0.42;100.00;97008.69;5008641;28;105133;-63
2023/04/10 04:32:47;;;;;;;10.13;8.97;;;;;;;-0.36;100.00;97009.81;5012903;28;101977;-63
2023/04/10 04:35:27;;;;;;;10.20;8.77;;;;;;;-0.36;100.00;97002.00;5012135;28;104001;-63
2023/04/10 04:38:15;;;;;;;9.97;8.73;;;;;;;-0.40;100.00;97010.34;5011177;28;104132;-63
2023/04/10 04:40:58;;;;;;;9.80;8.73;;;;;;;-0.47;100.00;97006.75;5015567;28;101836;-63
2023/04/10 04:43:46;;;;;;;10.87;8.93;;;;;;;-0.40;100.00;97011.13;5009806;28;102258;-63
2023/04/10 04:46:26;;;;;;;10.53;8.67;;;;;;;-0.38;100.00;97011.81;5011906;28;101771;-63
2023/04/10 04:48:53;;;;;;;10.63;9.17;;;;;;;-0.36;100.00;97015.06;5013493;28;102308;-63
2023/04/10 04:51:38;;;;;;;10.07;8.07;;;;;;;-0.47;100.00;97020.63;5012856;28;102229;-63
2023/04/10 04:54:12;;;;;;;10.07;8.97;;;;;;;-0.44;100.00;97015.06;5011914;28;101871;-63
2023/04/10 04:56:58;;;;;;;9.87;8.87;;;;;;;-0.42;100.00;97018.34;5013272;28;102088;-63
2023/04/10 04:59:49;;;;;;;9.80;8.70;;;;;;;-0.38;100.00;97013.59;5013929;27;104231;-63
2023/04/10 05:02:36;;;;;;;10.83;9.60;;;;;;;-0.18;100.00;97023.47;5001242;28;101880;-63
2023/04/10 05:05:26;;;;;;;9.90;8.67;;;;;;;-0.11;100.00;97019.19;5015331;28;103252;-63
2023/04/10 05:08:04;;;;;;;9.67;8.07;;;;;;;-0.02;100.00;97015.59;5011589;28;101792;-63
2023/04/10 05:10:56;;;;;;;9.60;8.60;;;;;;;0.05;100.00;97017.34;5045426;27;103897;-63
2023/04/10 05:13:41;;;;;;;10.07;8.80;;;;;;;0.19;100.00;97014.03;5010958;28;105627;-63
2023/04/10 05:16:47;;;;;;;10.10;8.73;;;;;;;0.28;100.00;97006.97;4989985;28;101784;-63
2023/04/10 05:19:22;;;;;;;11.80;8.90;;;;;;;0.25;100.00;97009.91;5007186;28;105345;-63
2023/04/10 05:21:55;;;;;;;9.97;8.20;;;;;;;0.26;100.00;97014.13;5026041;27;105631;-63
2023/04/10 05:24:41;;;;;;;9.87;8.83;;;;;;;0.25;100.00;97013.34;5013116;28;101642;-63
2023/04/10 05:27:17;;;;;;;10.97;9.07;;;;;;;0.38;100.00;97012.75;5012946;28;102304;-63
2023/04/10 05:30:03;;;;;;;11.07;9.33;;;;;;;0.42;100.00;97009.66;5012552;28;102342;-63
2023/04/10 05:32:58;;;;;;;13.47;10.03;;;;;;;0.68;100.00;97014.56;5005346;28;102737;-63
2023/04/10 05:35:43;;;;;;;13.73;10.03;;;;;;;0.66;100.00;97021.78;5008104;28;102189;-63
2023/04/10 05:38:23;;;;;;;14.90;11.83;;;;;;;0.86;100.00;97015.06;5010244;28;101756;-63
2023/04/10 05:41:10;;;;;;;13.27;10.20;;;;;;;0.99;100.00;97018.72;5011225;28;103217;-63
2023/04/10 05:44:03;;;;;;;12.67;10.70;;;;;;;1.10;100.00;97031.41;5003982;28;102175;-63
2023/04/10 05:46:48;;;;;;;12.83;10.40;;;;;;;1.19;100.00;97030.34;5008361;28;101735;-63
2023/04/10 05:49:46;;;;;;;12.47;10.03;;;;;;;1.35;100.00;97034.63;5011302;28;103983;-63
2023/04/10 05:52:32;;;;;;;12.27;9.67;;;;;;;1.57;100.00;97028.53;5014335;28;102799;-63
2023/04/10 05:55:22;;;;;;;13.07;10.43;;;;;;;1.70;100.00;97023.50;5011100;27;101971;-63
2023/04/10 05:58:08;;;;;;;14.57;11.47;;;;;;;1.71;100.00;97030.34;5008024;28;102235;-63
2023/04/10 06:00:58;;;;;;;13.00;9.67;;;;;;;1.70;100.00;97036.59;5000086;28;101964;-63
2023/04/10 06:03:38;;;;;;;12.93;9.93;;;;;;;1.90;100.00;97037.69;5044611;27;105302;-63
2023/04/10 06:06:08;;;;;;;13.77;11.30;;;;;;;2.16;100.00;97031.00;5010057;28;103668;-63
2023/04/10 06:08:35;;;;;;;13.57;10.73;;;;;;;2.27;100.00;97037.56;5010679;28;101776;-63
2023/04/10 06:11:02;;;;;;;15.27;11.43;;;;;;;2.47;100.00;97030.75;5009562;28;104812;-63
2023/04/10 06:13:32;;;;;;;13.80;10.97;;;;;;;2.55;100.00;97028.84;5042852;27;105379;-63
2023/04/10 06:16:00;;;;;;;12.87;10.60;;;;;;;2.56;100.00;97030.44;5013159;28;101807;-63
2023/04/10 06:18:28;;;;;;;14.20;10.57;;;;;;;2.65;100.00;97031.16;5009259;28;105054;-63
2023/04/10 06:20:56;;;;;;;11.40;10.17;;;;;;;2.67;100.00;97031.81;5008889;28;101977;-63
2023/04/10 06:23:25;;;;;;;13.77;10.83;;;;;;;2.95;100.00;97030.06;5009505;28;105600;-63
2023/04/10 06:25:52;;;;;;;11.77;9.90;;;;;;;3.14;100.00;97026.78;5008595;28;103923;-63
2023/04/10 06:28:19;;;;;;;12.70;10.50;;;;;;;3.25;100.00;97028.91;5010353;28;101907;-63
2023/04/10 06:30:49;;;;;;;12.90;10.30;;;;;;;3.33;100.00;97023.53;5009356;28;105736;-63
2023/04/10 06:33:16;;;;;;;13.17;10.80;;;;;;;3.48;100.00;97029.50;5042633;27;104752;-63
2023/04/10 06:35:45;;;;;;;12.63;9.93;;;;;;;3.73;100.00;97028.91;5009225;28;101864;-63
2023/04/10 06:38:12;;;;;;;12.03;10.03;;;;;;;3.72;100.00;97021.19;5013084;28;105250;-63
2023/04/10 06:40:41;;;;;;;12.50;10.20;;;;;;;3.97;100.00;97025.00;5009267;28;102574;-63
2023/04/10 06:43:08;;;;;;;12.30;10.17;;;;;;;3.99;100.00;97023.00;5010323;28;102330;-63
2023/04/10 06:45:39;;;;;;;13.43;10.50;;;;;;;4.22;100.00;97026.16;5008691;28;103740;-63
2023/04/10 06:48:06;;;;;;;12.27;9.90;;;;;;;4.43;100.00;97020.78;5010229;28;101782;-63
2023/04/10 06:50:33;;;;;;;11.70;9.83;;;;;;;4.54;100.00;97020.22;5011239;28;102497;-63
2023/04/10 06:53:00;;;;;;;11.87;10.27;;;;;;;4.61;100.00;97011.31;5008140;28;105634;-63
2023/04/10 06:55:27;;;;;;;12.37;10.03;;;;;;;4.72;100.00;97016.00;5010143;28;101715;-63
2023/04/10 06:57:56;;;;;;;12.43;9.53;;;;;;;5.13;100.00;97011.41;5016854;28;101781;-63
2023/04/10 07:00:23;;;;;;;11.37;9.77;;;;;;;5.16;100.00;97016.31;5014321;28;105527;-63
2023/04/10 07:02:50;;;;;;;12.57;10.40;;;;;;;5.12;100.00;97016.91;5009685;28;105503;-63
2023/04/10 07:05:17;;;;;;;11.20;9.67;;;;;;;5.35;100.00;97015.50;5012148;28;102603;-63
2023/04/10 07:07:44;;;;;;;11.10;9.90;;;;;;;5.29;100.00;97012.88;5009720;28;101994;-63
2023/04/10 07:10:12;;;;;;;10.73;9.63;;;;;;;5.25;100.00;97007.16;5025117;28;102572;-63
2023/04/10 07:12:39;;;;;;;11.33;9.33;;;;;;;5.44;100.00;97010.81;5029354;28;105763;-62
2023/04/10 07:15:11;;;;;;;10.80;9.10;;;;;;;5.58;100.00;97008.00;5028299;27;101865;-64
2023/04/10 07:17:38;;;;;;;9.77;8.77;;;;;;;5.35;100.00;97007.56;5009446;28;104853;-63
2023/04/10 07:20:06;;;;;;;9.50;8.53;;;;;;;5.26;100.00;97005.34;5009113;28;103953;-63
2023/04/10 07:22:33;;;;;;;9.47;8.47;;;;;;;5.32;100.00;97004.53;5012941;28;101815;-63
2023/04/10 07:25:01;;;;;;;8.70;7.80;;;;;;;5.34;100.00;96992.78;5009665;28;105061;-63
2023/04/10 07:27:28;;;;;;;10.17;8.97;;;;;;;5.40;100.00;96999.88;5029457;28;102090;-63
2023/04/10 07:29:55;;;;;;;9.27;8.30;;;;;;;5.71;100.00;96996.59;5028896;28;103107;-63
2023/04/10 07:32:24;;;;;;;9.83;8.20;;;;;;;5.80;100.00;96990.97;5028821;28;104016;-63
2023/04/10 07:34:52;;;;;;;9.77;8.27;;;;;;;6.09;100.00;96992.28;5029048;28;102055;-63
2023/04/10 07:37:19;;;;;;;10.13;8.80;;;;;;;6.01;100.00;96988.03;5009090;28;102730;-63
2023/04/10 07:39:46;;;;;;;9.47;8.53;;;;;;;6.39;100.00;96985.50;5028637;28;105496;-63
2023/04/10 07:42:13;;;;;;;10.63;8.43;;;;;;;6.65;100.00;96982.75;5008825;28;102027;-63
2023/04/10 07:44:39;;;;;;;9.27;8.27;;;;;;;6.93;100.00;96972.59;5032146;28;105097;-62
2023/04/10 07:47:06;;;;;;;8.97;7.93;;;;;;;7.13;100.00;96970.63;5017608;28;102322;-62
2023/04/10 07:49:36;;;;;;;8.57;7.50;;;;;;;7.62;100.00;96975.91;5029119;28;105089;-63
2023/04/10 07:52:03;;;;;;;9.00;7.63;;;;;;;7.85;100.00;96974.28;5027928;28;104361;-63
2023/04/10 07:54:32;;;;;;;9.00;8.03;;;;;;;8.07;100.00;96974.69;5029220;28;102548;-63
2023/04/10 07:57:00;;;;;;;8.17;7.33;;;;;;;7.96;100.00;96970.09;5017529;28;104013;-62
2023/04/10 07:59:28;;;;;;;8.30;7.50;;;;;;;8.05;100.00;96966.94;5028469;28;105325;-62
2023/04/10 08:01:55;;;;;;;8.33;7.47;;;;;;;8.42;100.00;96965.94;5015015;27;101805;-63
2023/04/10 08:04:23;;;;;;;7.97;7.17;;;;;;;8.67;100.00;96965.81;5011399;28;105073;-63
2023/04/10 08:06:51;;;;;;;7.40;6.70;;;;;;;8.72;100.00;96961.44;5022828;28;101862;-62
2023/04/10 08:09:18;;;;;;;7.47;6.77;;;;;;;8.90;100.00;96963.25;5028964;28;105668;-63
2023/04/10 08:11:45;;;;;;;8.27;7.47;;;;;;;9.04;100.00;96965.50;5026537;28;105787;-62
2023/04/10 08:14:12;;;;;;;7.73;6.93;;;;;;;9.21;100.00;96963.00;5028644;28;102068;-62
2023/04/10 08:16:39;;;;;;;7.57;6.83;;;;;;;9.40;100.00;96960.03;5027123;28;104816;-63
2023/04/10 08:19:06;;;;;;;6.83;6.13;;;;;;;9.70;100.00;96960.75;5009135;28;105798;-63
2023/04/10 08:21:33;;;;;;;6.77;6.07;;;;;;;9.89;100.00;96958.78;5022707;28;101921;-63
2023/04/10 08:24:03;;;;;;;6.90;6.13;;;;;;;10.29;100.00;96959.69;5030083;27;102440;-62
2023/04/10 08:26:30;;;;;;;6.57;5.97;;;;;;;9.89;100.00;96956.94;5012736;28;105828;-63
2023/04/10 08:29:00;;;;;;;6.53;5.93;;;;;;;9.82;100.00;96956.25;5010091;28;102377;-62
2023/04/10 08:31:28;;;;;;;5.73;5.23;;;;;;;9.98;100.00;96966.16;5026708;28;105485;-63
2023/04/10 08:33:55;;;;;;;7.20;6.60;;;;;;;10.10;100.00;96963.53;5028155;28;102013;-63
2023/04/10 08:36:22;;;;;;;7.03;6.33;;;;;;;10.15;100.00;96959.13;5030137;27;102675;-63
2023/04/10 08:38:49;;;;;;;7.20;6.50;;;;;;;10.26;100.00;96958.28;5027631;27;102932;-62
2023/04/10 08:41:18;;;;;;;6.70;6.10;;;;;;;10.59;100.00;96958.47;5016754;27;101908;-63
2023/04/10 08:43:46;;;;;;;6.27;5.67;;;;;;;10.92;100.00;96955.09;5008203;28;104930;-63
2023/04/10 08:46:13;;;;;;;6.20;5.60;;;;;;;10.75;100.00;96948.91;5007694;28;105237;-63
2023/04/10 08:48:47;;;;;;;7.10;6.43;;;;;;;10.73;100.00;96949.16;5012757;28;102368;-63
2023/04/10 08:51:19;;;;;;;6.63;5.70;;;;;;;11.25;100.00;96949.81;5007855;28;104969;-63
2023/04/10 08:53:51;;;;;;;6.53;5.63;;;;;;;11.66;100.00;96941.47;5007922;28;101770;-63
2023/04/10 08:56:19;;;;;;;6.13;5.53;;;;;;;11.96;100.00;96939.25;5016211;28;105137;-63
2023/04/10 08:58:46;;;;;;;6.30;5.70;;;;;;;12.02;100.00;96935.59;5023437;28;105846;-63
2023/04/10 09:01:14;;;;;;;6.00;5.40;;;;;;;11.83;100.00;96937.72;5008137;28;101951;-63
2023/04/10 09:03:41;;;;;;;6.10;5.50;;;;;;;11.62;100.00;96938.47;5009078;28;104096;-63
2023/04/10 09:06:09;;;;;;;5.60;5.10;;;;;;;12.04;100.00;96934.28;5007645;28;105442;-63
2023/04/10 09:08:36;;;;;;;6.10;5.50;;;;;;;12.22;100.00;96931.31;5016722;28;101999;-63
2023/04/10 09:11:03;;;;;;;5.90;5.33;;;;;;;12.21;100.00;96928.94;5030981;28;105286;-63
2023/04/10 09:13:39;;;;;;;5.80;5.30;;;;;;;12.19;100.00;96929.19;5028752;28;102529;-63
2023/04/10 09:16:07;;;;;;;5.60;5.10;;;;;;;12.24;100.00;96928.41;5028827;27;105442;-63
2023/04/10 09:18:48;;;;;;;6.17;5.57;;;;;;;12.82;100.00;96925.91;5029059;28;105729;-63
2023/04/10 09:21:16;;;;;;;5.47;4.97;;;;;;;13.15;100.00;96923.06;5011203;28;102127;-63
2023/04/10 09:23:44;;;;;;;5.30;4.90;;;;;;;13.59;96.10;96930.69;5011419;28;104098;-63
2023/04/10 09:26:25;;;;;;;5.47;4.97;;;;;;;13.68;87.68;96925.66;5010553;28;105574;-63
2023/04/10 09:29:01;;;;;;;5.20;4.70;;;;;;;13.66;86.90;96917.06;5024378;28;102013;-63
2023/04/10 09:31:34;;;;;;;5.20;4.70;;;;;;;13.78;89.30;96915.03;5029427;28;103583;-63
2023/04/10 09:34:09;;;;;;;4.90;4.50;;;;;;;13.89;77.43;96917.50;5034250;28;103286;-63
2023/04/10 09:36:37;;;;;;;4.50;4.10;;;;;;;13.96;64.20;96922.63;5023231;28;105195;-63
2023/04/10 09:39:04;;;;;;;4.10;3.80;;;;;;;14.13;62.75;96907.22;5026011;28;102583;-63
2023/04/10 09:41:31;;;;;;;3.83;3.53;;;;;;;13.94;58.40;96906.03;5029315;28;101870;-63
2023/04/10 09:44:10;;;;;;;4.50;4.10;;;;;;;14.17;59.98;96900.28;5032751;27;102348;-63
2023/04/10 09:46:37;;;;;;;4.10;3.80;;;;;;;14.21;57.92;96898.72;5029951;27;103180;-63
2023/04/10 09:49:06;;;;;;;4.40;4.00;;;;;;;14.44;53.97;96899.09;5016846;28;102260;-63
2023/04/10 09:51:34;;;;;;;4.10;3.80;;;;;;;14.43;58.88;96891.31;5021868;28;103016;-63
2023/04/10 09:54:02;;;;;;;4.57;4.17;;;;;;;14.31;64.60;96886.22;5011119;28;103107;-63
2023/04/10 09:56:30;;;;;;;4.07;3.77;;;;;;;14.37;59.28;96884.34;5015515;28;101826;-63
2023/04/10 09:58:59;;;;;;;4.30;3.90;;;;;;;15.11;59.37;96877.56;5012516;28;102576;-63
2023/04/10 10:01:29;;;;;;;4.30;4.00;;;;;;;14.74;50.96;96871.63;5004678;28;101969;-63
2023/04/10 10:03:57;;;;;;;4.43;4.03;;;;;;;14.18;52.53;96875.94;5031084;28;105295;-63
2023/04/10 10:06:25;;;;;;;4.20;3.90;;;;;;;14.54;53.83;96876.91;5019450;28;105618;-63
2023/04/10 10:08:52;;;;;;;4.10;3.80;;;;;;;14.95;54.53;96870.59;5010435;28;101954;-63
2023/04/10 10:11:23;;;;;;;4.13;3.83;;;;;;;15.18;50.80;96872.75;5003431;28;106203;-63
2023/04/10 10:13:52;;;;;;;4.20;3.90;;;;;;;14.88;53.21;96862.81;5030150;28;105657;-63
2023/04/10 10:16:22;;;;;;;4.03;3.73;;;;;;;14.96;49.44;96851.59;5035226;27;101999;-63
2023/04/10 10:18:57;;;;;;;4.20;3.90;;;;;;;15.14;53.69;96847.56;5021098;27;103097;-63
2023/04/10 10:21:26;;;;;;;4.20;3.90;;;;;;;15.55;58.27;96847.31;5019665;28;102119;-63
2023/04/10 10:23:56;;;;;;;4.30;4.00;;;;;;;15.68;53.81;96841.41;5031867;27;102345;-63
2023/04/10 10:26:24;;;;;;;4.80;4.40;;;;;;;15.90;54.31;96841.88;5029671;27;102570;-63
2023/04/10 10:28:52;;;;;;;4.40;4.00;;;;;;;15.80;55.48;96838.44;5019391;27;101810;-63
2023/04/10 10:31:19;;;;;;;4.90;4.50;;;;;;;16.09;57.27;96837.50;5011719;28;102426;-63
2023/04/10 10:33:48;;;;;;;4.17;3.87;;;;;;;16.14;51.10;96839.41;5025938;28;102499;-63
2023/04/10 10:36:17;;;;;;;3.77;3.47;;;;;;;16.18;50.78;96840.47;5031768;27;101675;-63
2023/04/10 10:38:57;;;;;;;4.23;3.90;;;;;;;16.37;48.50;96833.38;5031482;28;105221;-63
2023/04/10 10:41:31;;;;;;;3.87;3.57;;;;;;;16.16;49.10;96821.94;5030238;28;102009;-62
2023/04/10 10:44:07;;;;;;;4.20;3.90;;;;;;;16.55;48.19;96832.78;5031599;27;102292;-63
2023/04/10 10:46:37;;;;;;;4.00;3.70;;;;;;;16.21;46.73;96815.75;4990887;28;102781;-63
2023/04/10 10:49:05;;;;;;;3.57;3.37;;;;;;;16.62;46.70;96820.66;5012629;28;102268;-63
2023/04/10 10:51:47;;;;;;;3.80;3.50;;;;;;;16.77;45.97;96817.06;5012003;28;102370;-63
2023/04/10 10:54:34;;;;;;;3.87;3.57;;;;;;;16.04;43.55;96815.28;4989195;28;104619;-63
2023/04/10 10:57:05;;;;;;;3.10;2.90;;;;;;;16.47;47.37;96818.06;5001077;28;101884;-63
2023/04/10 10:59:54;;;;;;;5.97;4.17;;;;;;;16.81;45.87;96815.44;5009688;28;104563;-63
2023/04/10 11:02:21;;;;;;;3.47;3.20;;;;;;;16.71;45.79;96802.06;5013997;28;103065;-63
2023/04/10 11:04:49;;;;;;;3.80;3.50;;;;;;;17.08;44.38;96794.28;5011114;28;102905;-63
2023/04/10 11:07:18;;;;;;;3.57;3.27;;;;;;;17.12;43.74;96792.66;5020908;28;105365;-62
2023/04/10 11:09:52;;;;;;;3.30;3.10;;;;;;;16.71;44.36;96786.78;4989598;28;101854;-63
2023/04/10 11:12:22;;;;;;;3.97;3.40;;;;;;;17.08;46.63;96788.91;4989985;28;104774;-63
2023/04/10 11:15:00;;;;;;;3.20;3.00;;;;;;;17.48;44.14;96783.19;5005281;28;105731;-63
2023/04/10 11:17:49;;;;;;;3.80;3.53;;;;;;;17.67;44.00;96784.09;5010584;28;101943;-63
2023/04/10 11:20:16;;;;;;;3.23;3.03;;;;;;;17.76;42.37;96768.94;5029068;28;105299;-63
2023/04/10 11:23:10;;;;;;;3.00;2.80;;;;;;;17.63;42.76;96758.84;5029992;27;102437;-63
2023/04/10 11:25:50;;;;;;;3.47;3.27;;;;;;;17.65;40.62;96756.69;5029350;27;101978;-63
2023/04/10 11:28:37;;;;;;;3.20;3.00;;;;;;;17.42;42.63;96757.44;5029787;27;102760;-63
2023/04/10 11:31:23;;;;;;;3.40;3.20;;;;;;;17.06;43.32;96754.25;5028857;28;101804;-63
2023/04/10 11:33:52;;;;;;;3.30;3.10;;;;;;;17.24;43.02;96745.50;5031078;27;102911;-63
2023/04/10 11:36:19;;;;;;;3.07;2.87;;;;;;;17.67;41.62;96743.75;5028888;28;102642;-63
2023/04/10 11:39:07;;;;;;;3.50;3.20;;;;;;;17.34;41.88;96749.97;5030160;27;101706;-62
2023/04/10 11:41:36;;;;;;;3.03;2.83;;;;;;;17.21;43.56;96742.56;5029092;28;105299;-62